Time;durP1;ratioP1;P1;durP2;ratioP2;P2;SDS_P1;SDS_P2;PMS_P1;PMS_P2;Temp;Humidity;BMP_temperature;BMP_pressure;BME280_temperature;BME280_humidity;BME280_pressure;Samples;Min_cycle;Max_cycle;Signal;HPM_P1;HPM_P2
2022/03/03 00:01:41;;;;;;;28.10;18.73;;;9.10;70.80;;;;;;5053401;28;20503;-68
2022/03/03 00:04:08;;;;;;;27.40;18.70;;;9.10;70.20;;;;;;5052570;28;20425;-67
2022/03/03 00:06:34;;;;;;;26.35;18.10;;;9.00;70.90;;;;;;5047320;28;20405;-69
2022/03/03 00:09:00;;;;;;;26.50;18.48;;;9.00;70.70;;;;;;5054473;28;20494;-70
2022/03/03 00:11:26;;;;;;;26.35;17.63;;;9.00;70.70;;;;;;5052502;28;20403;-70
2022/03/03 00:13:54;;;;;;;27.03;19.03;;;9.00;70.80;;;;;;5044545;28;20421;-69
2022/03/03 00:16:20;;;;;;;25.73;18.13;;;9.00;70.60;;;;;;5051616;28;20416;-68
2022/03/03 00:18:45;;;;;;;29.00;18.53;;;9.00;70.70;;;;;;5053173;28;20411;-69
2022/03/03 00:21:11;;;;;;;26.73;17.97;;;9.00;70.70;;;;;;5047477;28;20907;-68
2022/03/03 00:23:36;;;;;;;27.90;18.40;;;9.00;71.50;;;;;;5046220;28;20465;-70
2022/03/03 00:26:02;;;;;;;26.37;18.40;;;8.90;71.20;;;;;;5048258;28;20418;-71
2022/03/03 00:28:28;;;;;;;26.55;17.88;;;8.90;71.00;;;;;;5065404;28;20810;-69
2022/03/03 00:30:55;;;;;;;26.52;18.70;;;8.90;71.20;;;;;;5069344;28;20419;-70
2022/03/03 00:33:20;;;;;;;25.63;18.33;;;8.90;71.10;;;;;;5069794;28;20394;-68
2022/03/03 00:35:46;;;;;;;27.23;18.50;;;8.90;71.10;;;;;;5068639;28;20407;-66
2022/03/03 00:38:12;;;;;;;28.92;18.52;;;8.80;71.50;;;;;;5081186;28;20529;-66
2022/03/03 00:40:38;;;;;;;27.92;19.20;;;8.80;71.40;;;;;;5051663;28;21187;-66
2022/03/03 00:43:06;;;;;;;27.65;18.65;;;8.80;71.30;;;;;;5052510;28;20399;-66
2022/03/03 00:45:35;;;;;;;26.20;18.35;;;8.80;71.70;;;;;;5051911;28;20408;-66
2022/03/03 00:48:02;;;;;;;29.30;18.10;;;8.80;71.90;;;;;;5069405;28;20189;-66
2022/03/03 00:50:28;;;;;;;28.42;17.58;;;8.40;72.60;;;;;;5051678;28;20549;-67
2022/03/03 00:52:53;;;;;;;34.08;17.80;;;8.00;73.50;;;;;;5071507;28;20194;-66
2022/03/03 00:55:19;;;;;;;28.92;17.30;;;7.80;74.30;;;;;;5082793;28;20638;-65
2022/03/03 00:57:45;;;;;;;30.95;18.13;;;7.60;74.80;;;;;;5071318;28;20190;-66
2022/03/03 01:00:11;;;;;;;;;;;7.40;75.20;;;;;;5069775;28;21782;-67
2022/03/03 01:02:36;;;;;;;;;;;7.30;75.30;;;;;;5070467;28;19915;-66
2022/03/03 01:05:04;;;;;;;27.80;17.25;;;7.10;76.30;;;;;;5069037;28;20216;-66
2022/03/03 01:07:30;;;;;;;28.88;17.45;;;7.10;75.60;;;;;;5070064;28;20186;-66
2022/03/03 01:09:55;;;;;;;31.17;17.67;;;7.00;75.70;;;;;;5070361;28;20175;-66
2022/03/03 01:12:21;;;;;;;28.30;17.75;;;6.90;76.00;;;;;;5070124;28;20222;-66
2022/03/03 01:14:47;;;;;;;34.53;17.63;;;6.90;76.30;;;;;;5052211;28;20262;-67
2022/03/03 01:17:13;;;;;;;28.05;16.80;;;6.90;76.50;;;;;;5070213;28;20595;-67
2022/03/03 01:19:40;;;;;;;28.63;16.73;;;6.90;76.80;;;;;;5069393;28;20252;-69
2022/03/03 01:22:06;;;;;;;30.98;20.33;;;6.80;77.10;;;;;;5076757;28;20408;-69
2022/03/03 01:24:32;;;;;;;30.95;20.08;;;7.20;79.00;;;;;;5069329;28;20427;-68
2022/03/03 01:26:58;;;;;;;30.55;20.48;;;7.60;78.40;;;;;;5039399;28;20475;-70
2022/03/03 01:29:24;;;;;;;32.10;20.07;;;7.70;77.60;;;;;;5055398;28;20408;-69
2022/03/03 01:31:50;;;;;;;30.42;20.30;;;7.80;77.20;;;;;;5075522;28;20415;-71
2022/03/03 01:34:16;;;;;;;27.98;19.73;;;7.90;76.60;;;;;;5067985;28;20433;-69
2022/03/03 01:36:43;;;;;;;30.08;19.52;;;7.90;76.00;;;;;;5078661;28;20413;-68
2022/03/03 01:39:09;;;;;;;30.50;20.08;;;8.00;75.70;;;;;;5067329;28;20403;-67
2022/03/03 01:41:36;;;;;;;28.55;19.73;;;8.00;75.50;;;;;;5070167;28;20422;-65
2022/03/03 01:44:03;;;;;;;30.05;20.38;;;8.00;75.40;;;;;;5079823;28;20541;-67
2022/03/03 01:46:29;;;;;;;29.05;19.45;;;8.00;75.30;;;;;;5067747;28;20415;-67
2022/03/03 01:48:55;;;;;;;28.42;19.92;;;8.00;75.70;;;;;;5068707;28;20779;-66
2022/03/03 01:51:21;;;;;;;30.17;20.05;;;8.00;75.50;;;;;;5052136;28;20419;-66
2022/03/03 01:53:47;;;;;;;28.98;20.58;;;8.00;75.10;;;;;;5067430;28;20484;-66
2022/03/03 01:56:13;;;;;;;28.37;19.83;;;8.00;75.40;;;;;;5069538;28;20913;-65
2022/03/03 01:58:40;;;;;;;31.30;20.35;;;8.10;75.40;;;;;;5067372;28;20415;-65
2022/03/03 02:01:05;;;;;;;29.08;19.95;;;8.10;75.20;;;;;;5073062;28;20402;-65
2022/03/03 02:03:31;;;;;;;29.75;20.13;;;8.10;76.30;;;;;;5067728;28;20411;-66
2022/03/03 02:05:57;;;;;;;29.95;19.88;;;8.10;76.00;;;;;;5078398;28;20403;-65
2022/03/03 02:08:23;;;;;;;28.50;19.58;;;8.10;75.10;;;;;;5050205;28;20768;-66
2022/03/03 02:10:52;;;;;;;29.60;19.98;;;8.10;75.20;;;;;;5067876;28;20782;-66
2022/03/03 02:13:18;;;;;;;27.58;19.70;;;8.00;75.40;;;;;;5067217;28;20407;-66
2022/03/03 02:16:02;;;;;;;29.02;20.27;;;8.00;75.50;;;;;;5074727;28;20465;-66
2022/03/03 02:18:27;;;;;;;31.02;20.45;;;8.00;75.50;;;;;;5066895;28;20415;-66
2022/03/03 02:20:53;;;;;;;28.70;19.90;;;8.00;75.70;;;;;;5050494;28;20404;-66
2022/03/03 02:23:19;;;;;;;30.80;20.98;;;8.00;75.80;;;;;;5071116;28;20411;-65
2022/03/03 02:25:46;;;;;;;30.30;20.27;;;8.00;75.80;;;;;;5068886;28;20422;-65
2022/03/03 02:28:12;;;;;;;30.03;20.60;;;7.90;76.30;;;;;;5066137;28;20445;-65
2022/03/03 02:30:37;;;;;;;29.27;20.02;;;7.90;76.00;;;;;;5052226;28;20435;-69
2022/03/03 02:33:03;;;;;;;31.83;21.00;;;7.90;76.30;;;;;;5070160;28;20414;-69
2022/03/03 02:35:29;;;;;;;31.67;21.00;;;7.90;75.60;;;;;;5066879;28;20391;-68
2022/03/03 02:37:55;;;;;;;31.67;20.43;;;8.00;76.20;;;;;;5068823;28;20887;-68
2022/03/03 02:40:21;;;;;;;30.88;20.55;;;7.90;76.00;;;;;;5069752;28;20407;-67
2022/03/03 02:42:51;;;;;;;29.13;21.15;;;7.90;75.90;;;;;;5066297;28;20423;-69
2022/03/03 02:45:17;;;;;;;30.48;20.95;;;7.90;76.30;;;;;;5066459;28;20457;-68
2022/03/03 02:47:47;;;;;;;32.15;21.98;;;7.80;75.90;;;;;;5039324;28;20433;-68
2022/03/03 02:50:15;;;;;;;31.02;21.40;;;7.80;76.50;;;;;;5077717;28;20498;-67
2022/03/03 02:52:41;;;;;;;31.42;20.92;;;7.70;76.80;;;;;;5077582;28;20478;-67
2022/03/03 02:55:07;;;;;;;30.23;21.17;;;7.70;77.00;;;;;;5067681;28;20725;-67
2022/03/03 03:00:17;;;;;;;32.60;21.67;;;7.70;76.80;;;;;;5062443;28;20407;-68
2022/03/03 03:02:43;;;;;;;31.37;21.30;;;7.70;77.20;;;;;;5049893;28;20403;-70
2022/03/03 03:05:10;;;;;;;33.97;21.23;;;7.60;77.10;;;;;;5066383;28;21064;-70
2022/03/03 03:07:36;;;;;;;30.88;21.33;;;7.60;77.70;;;;;;5051072;28;20768;-68
2022/03/03 03:10:03;;;;;;;30.83;21.83;;;7.60;78.10;;;;;;5065606;28;20428;-68
2022/03/03 03:12:28;;;;;;;32.65;22.00;;;7.60;78.00;;;;;;5067707;28;20423;-66
2022/03/03 03:14:54;;;;;;;34.33;22.47;;;7.60;78.50;;;;;;5048653;28;20426;-67
2022/03/03 03:17:20;;;;;;;32.80;21.75;;;7.50;78.30;;;;;;5067233;28;20387;-66
2022/03/03 03:19:46;;;;;;;34.42;22.75;;;7.50;78.50;;;;;;5065949;28;20422;-68
2022/03/03 03:22:12;;;;;;;32.75;22.02;;;7.50;79.00;;;;;;5049358;28;20457;-67
2022/03/03 03:24:38;;;;;;;31.03;22.00;;;7.40;79.00;;;;;;5073455;28;20406;-67
2022/03/03 03:27:04;;;;;;;32.10;21.83;;;7.40;79.60;;;;;;5052966;28;20406;-68
2022/03/03 03:29:30;;;;;;;34.30;22.25;;;7.40;79.20;;;;;;5055284;28;21106;-68
2022/03/03 03:31:56;;;;;;;31.85;22.05;;;7.40;79.20;;;;;;5055456;28;20418;-68
2022/03/03 03:34:21;;;;;;;33.73;22.40;;;7.30;78.80;;;;;;5075720;28;20506;-68
2022/03/03 03:36:47;;;;;;;32.92;21.85;;;7.30;79.80;;;;;;5073302;28;20406;-69
2022/03/03 03:39:13;;;;;;;32.90;22.00;;;7.30;79.80;;;;;;5072248;28;20490;-67
2022/03/03 03:41:39;;;;;;;30.70;21.52;;;7.20;79.50;;;;;;5049311;28;20413;-68
2022/03/03 03:44:05;;;;;;;33.42;21.83;;;7.20;79.70;;;;;;5062686;28;20836;-69
2022/03/03 03:46:30;;;;;;;31.13;21.67;;;7.20;79.70;;;;;;5079795;28;20438;-67
2022/03/03 03:48:56;;;;;;;33.85;21.98;;;7.20;79.40;;;;;;5048196;28;20468;-68
2022/03/03 03:51:22;;;;;;;31.80;21.40;;;7.10;78.90;;;;;;5067527;28;20522;-67
2022/03/03 03:53:47;;;;;;;30.88;21.50;;;7.10;79.30;;;;;;5072188;28;20396;-69
2022/03/03 03:56:13;;;;;;;31.17;21.47;;;7.10;79.70;;;;;;5048012;28;20504;-68
2022/03/03 03:58:38;;;;;;;31.42;21.63;;;7.10;79.40;;;;;;5066456;28;20764;-68
2022/03/03 04:01:04;;;;;;;32.33;21.98;;;7.10;78.90;;;;;;5066070;28;20459;-69
2022/03/03 04:03:30;;;;;;;32.13;22.03;;;7.10;79.00;;;;;;5038197;28;20420;-68
2022/03/03 04:05:56;;;;;;;34.20;22.45;;;7.00;79.00;;;;;;5070739;28;20928;-68
2022/03/03 04:08:21;;;;;;;33.03;22.70;;;7.00;79.50;;;;;;5078105;28;20425;-68
2022/03/03 04:10:47;;;;;;;34.17;22.47;;;7.00;79.60;;;;;;5050526;28;20482;-69
2022/03/03 04:13:15;;;;;;;32.30;22.38;;;6.90;79.50;;;;;;5080520;28;21204;-68
2022/03/03 04:15:41;;;;;;;34.33;22.73;;;7.00;79.60;;;;;;5071914;28;20500;-68
2022/03/03 04:18:07;;;;;;;33.93;22.30;;;6.90;80.00;;;;;;5050830;28;20424;-68
2022/03/03 04:20:33;;;;;;;30.73;21.38;;;6.90;79.50;;;;;;5068327;28;20406;-66
2022/03/03 04:22:59;;;;;;;32.20;21.65;;;6.90;79.80;;;;;;5082579;28;20485;-69
2022/03/03 04:25:25;;;;;;;32.35;22.23;;;6.90;79.80;;;;;;5065054;28;20415;-68
2022/03/03 04:27:50;;;;;;;32.17;23.57;;;6.90;80.70;;;;;;5032554;28;20419;-69
2022/03/03 04:30:16;;;;;;;32.47;23.08;;;6.80;79.40;;;;;;5065886;28;20810;-67
2022/03/03 04:32:42;;;;;;;34.53;23.10;;;6.80;79.10;;;;;;5066751;28;20411;-67
2022/03/03 04:35:09;;;;;;;33.97;23.43;;;6.80;79.40;;;;;;5061111;28;20415;-67
2022/03/03 04:37:36;;;;;;;36.50;23.10;;;6.70;79.50;;;;;;5073200;28;20413;-67
2022/03/03 04:40:03;;;;;;;38.17;23.23;;;6.70;79.60;;;;;;5068170;28;20415;-66
2022/03/03 04:42:29;;;;;;;34.22;22.70;;;6.70;79.70;;;;;;5066124;28;20508;-66
2022/03/03 04:44:55;;;;;;;33.25;23.08;;;6.70;79.20;;;;;;5065466;28;20423;-66
2022/03/03 04:47:21;;;;;;;35.97;22.50;;;6.60;78.70;;;;;;5067168;28;20398;-67
2022/03/03 04:49:46;;;;;;;32.67;22.35;;;6.60;78.30;;;;;;5065182;28;20435;-67
2022/03/03 04:52:12;;;;;;;33.47;21.83;;;6.60;79.20;;;;;;5067123;28;20465;-66
2022/03/03 04:54:37;;;;;;;32.88;21.35;;;6.60;79.00;;;;;;5064152;28;21456;-65
2022/03/03 04:57:03;;;;;;;33.00;21.60;;;6.60;79.00;;;;;;5065689;28;20465;-65
2022/03/03 04:59:29;;;;;;;30.33;21.13;;;6.50;78.40;;;;;;5065734;28;20412;-66
2022/03/03 05:01:55;;;;;;;30.20;20.97;;;6.50;78.70;;;;;;5059146;28;21148;-66
2022/03/03 05:04:21;;;;;;;30.30;21.02;;;6.50;79.00;;;;;;5064348;28;20418;-66
2022/03/03 05:06:47;;;;;;;30.47;21.00;;;6.50;79.30;;;;;;5066696;28;20410;-67
2022/03/03 05:09:13;;;;;;;31.90;21.05;;;6.50;78.80;;;;;;5065247;28;20415;-67
2022/03/03 05:11:39;;;;;;;31.30;20.88;;;6.50;78.20;;;;;;5076976;28;20483;-67
2022/03/03 05:14:06;;;;;;;30.27;20.63;;;6.40;77.50;;;;;;5073999;28;20395;-66
2022/03/03 05:16:31;;;;;;;30.20;20.50;;;6.40;77.90;;;;;;5057021;28;20403;-67
2022/03/03 05:18:57;;;;;;;31.50;21.13;;;6.40;77.80;;;;;;5067942;28;20399;-70
2022/03/03 05:21:23;;;;;;;29.13;20.15;;;6.40;78.00;;;;;;5034926;28;20952;-69
2022/03/03 05:23:48;;;;;;;31.33;20.93;;;6.40;77.00;;;;;;5080891;28;20418;-69
2022/03/03 05:26:14;;;;;;;30.33;21.08;;;6.40;77.40;;;;;;5068771;28;20439;-70
2022/03/03 05:28:40;;;;;;;31.17;20.63;;;6.40;76.80;;;;;;5051123;28;20815;-69
2022/03/03 05:31:05;;;;;;;32.22;21.98;;;6.30;76.90;;;;;;5065928;28;20427;-68
2022/03/03 05:33:33;;;;;;;30.57;21.43;;;6.30;76.70;;;;;;5068750;28;20399;-67
2022/03/03 05:36:01;;;;;;;31.08;21.27;;;6.30;77.50;;;;;;5065039;28;20818;-70
2022/03/03 05:38:29;;;;;;;33.75;21.67;;;6.20;78.00;;;;;;5047667;28;20399;-70
2022/03/03 05:40:55;;;;;;;30.70;21.33;;;6.20;77.90;;;;;;5065041;28;20891;-69
2022/03/03 05:43:22;;;;;;;31.98;21.58;;;6.20;78.80;;;;;;5068449;28;20411;-70
2022/03/03 05:45:48;;;;;;;34.08;21.27;;;6.10;79.20;;;;;;5066650;28;20502;-69
2022/03/03 05:48:17;;;;;;;31.10;21.10;;;6.10;79.20;;;;;;5066426;28;20537;-69
2022/03/03 05:50:43;;;;;;;32.88;21.98;;;6.10;79.40;;;;;;5067202;28;20427;-69
2022/03/03 05:53:09;;;;;;;31.90;22.33;;;6.10;79.10;;;;;;5067294;28;20484;-71
2022/03/03 05:55:43;;;;;;;31.35;21.40;;;6.10;79.30;;;;;;5067131;28;20426;-69
2022/03/03 05:58:15;;;;;;;31.58;21.50;;;6.10;79.40;;;;;;5068040;28;20419;-67
2022/03/03 06:00:45;;;;;;;33.15;21.80;;;6.10;79.10;;;;;;5052443;28;20406;-69
2022/03/03 06:03:19;;;;;;;31.83;21.35;;;6.10;77.80;;;;;;5067439;28;20395;-71
2022/03/03 06:06:14;;;;;;;30.08;21.30;;;6.00;77.90;;;;;;5064581;28;20903;-69
2022/03/03 06:08:42;;;;;;;32.20;20.80;;;6.00;78.00;;;;;;5066549;28;20415;-66
2022/03/03 06:11:16;;;;;;;34.28;22.30;;;6.00;77.80;;;;;;5066514;28;20407;-67
2022/03/03 06:13:46;;;;;;;31.58;22.08;;;6.00;77.50;;;;;;5067505;28;20398;-67
2022/03/03 06:16:19;;;;;;;33.22;22.17;;;6.00;78.00;;;;;;5067290;28;20408;-67
2022/03/03 06:18:47;;;;;;;33.83;22.25;;;6.00;78.00;;;;;;5077796;28;20816;-67
2022/03/03 06:21:14;;;;;;;33.80;21.75;;;6.00;77.50;;;;;;5065827;28;20433;-67
2022/03/03 06:23:40;;;;;;;33.30;22.00;;;6.00;77.80;;;;;;5068041;28;20399;-66
2022/03/03 06:26:12;;;;;;;33.67;22.35;;;6.00;77.50;;;;;;5066843;28;20457;-66
2022/03/03 06:28:39;;;;;;;34.85;23.02;;;6.00;77.90;;;;;;5066208;28;20744;-69
2022/03/03 06:31:05;;;;;;;33.65;23.40;;;5.90;78.60;;;;;;5066310;28;20768;-67
2022/03/03 06:33:31;;;;;;;32.28;20.48;;;5.90;79.60;;;;;;5067482;28;20232;-68
2022/03/03 06:35:56;;;;;;;34.35;20.63;;;5.50;80.20;;;;;;5066327;28;20638;-67
2022/03/03 06:38:23;;;;;;;35.10;20.02;;;5.10;81.10;;;;;;5067632;28;20273;-68
2022/03/03 06:40:49;;;;;;;34.88;19.15;;;4.90;81.80;;;;;;5066032;28;20537;-66
2022/03/03 06:43:15;;;;;;;34.30;19.00;;;4.70;82.20;;;;;;5068893;28;20654;-67
2022/03/03 06:45:41;;;;;;;34.28;19.00;;;4.60;82.40;;;;;;5052135;28;20191;-67
2022/03/03 06:48:07;;;;;;;32.80;18.92;;;4.50;82.60;;;;;;5066992;28;20663;-67
2022/03/03 06:50:39;;;;;;;31.70;18.42;;;4.40;82.70;;;;;;5068229;28;20658;-69
2022/03/03 06:53:09;;;;;;;37.05;18.65;;;4.40;82.90;;;;;;5048950;28;20255;-65
2022/03/03 06:55:35;;;;;;;30.30;17.27;;;4.30;83.00;;;;;;5068584;28;20182;-65
2022/03/03 06:58:01;;;;;;;33.20;18.20;;;4.30;83.10;;;;;;5077784;28;20178;-66
2022/03/03 07:00:33;;;;;;;35.80;18.23;;;4.30;83.20;;;;;;5076593;28;20643;-66
2022/03/03 07:03:01;;;;;;;33.75;18.63;;;4.20;83.20;;;;;;5068304;28;20268;-66
2022/03/03 07:05:30;;;;;;;32.40;18.00;;;4.20;83.20;;;;;;5068539;28;20187;-66
2022/03/03 07:07:56;;;;;;;34.00;19.48;;;4.20;83.30;;;;;;5066441;28;20661;-66
2022/03/03 07:10:25;;;;;;;36.10;18.98;;;4.20;83.30;;;;;;5067602;28;20186;-65
2022/03/03 07:12:53;;;;;;;37.78;19.60;;;4.20;83.40;;;;;;5069828;28;20214;-66
2022/03/03 07:15:20;;;;;;;34.92;18.08;;;4.20;83.50;;;;;;5067873;28;20191;-66
2022/03/03 07:17:49;;;;;;;34.63;18.58;;;4.20;83.60;;;;;;5035721;28;20582;-67
2022/03/03 07:20:27;;;;;;;37.65;18.67;;;4.30;83.70;;;;;;5068298;28;20193;-66
2022/03/03 07:23:13;;;;;;;38.45;19.35;;;4.30;83.70;;;;;;5068167;28;20186;-66
2022/03/03 07:25:47;;;;;;;37.20;18.80;;;4.30;83.80;;;;;;5078756;28;20255;-67
2022/03/03 07:28:14;;;;;;;32.88;18.73;;;4.30;83.80;;;;;;5068653;28;22491;-66
2022/03/03 07:30:43;;;;;;;33.75;18.48;;;4.40;83.90;;;;;;5069933;28;20308;-68
2022/03/03 07:33:31;;;;;;;38.53;19.33;;;4.40;84.00;;;;;;5080558;28;20692;-67
2022/03/03 07:35:57;;;;;;;34.03;18.95;;;4.40;83.90;;;;;;5068243;28;20583;-66
2022/03/03 07:38:35;;;;;;;32.97;18.80;;;4.40;83.90;;;;;;5078203;28;20210;-66
2022/03/03 07:41:02;;;;;;;32.40;19.58;;;4.50;84.00;;;;;;5068113;28;20197;-68
2022/03/03 07:43:28;;;;;;;33.78;18.70;;;4.50;84.20;;;;;;5069193;28;20244;-67
2022/03/03 07:45:54;;;;;;;35.90;18.90;;;4.50;84.20;;;;;;5033624;28;20190;-67
2022/03/03 07:48:23;;;;;;;36.58;17.70;;;4.60;84.40;;;;;;5069005;28;21694;-67
2022/03/03 07:50:49;;;;;;;32.30;18.10;;;4.60;84.50;;;;;;5069877;28;20240;-67
2022/03/03 07:53:15;;;;;;;37.05;19.95;;;4.70;84.80;;;;;;5068753;28;20195;-68
2022/03/03 07:55:48;;;;;;;34.92;18.60;;;4.70;84.90;;;;;;5069700;28;20198;-67
2022/03/03 07:58:16;;;;;;;32.08;18.63;;;4.70;84.90;;;;;;5067411;28;20186;-68
2022/03/03 08:00:48;;;;;;;30.52;17.33;;;4.80;84.70;;;;;;5074965;28;20204;-67
2022/03/03 08:03:19;;;;;;;29.95;17.02;;;4.80;84.80;;;;;;5071556;28;20196;-67
2022/03/03 08:05:48;;;;;;;26.17;16.17;;;4.90;84.70;;;;;;5069437;28;20190;-67
2022/03/03 08:08:16;;;;;;;31.88;18.50;;;4.90;84.90;;;;;;5049908;28;20252;-67
2022/03/03 08:10:44;;;;;;;29.40;17.88;;;5.00;85.00;;;;;;5068291;28;20277;-66
2022/03/03 08:13:16;;;;;;;32.92;18.58;;;5.10;85.00;;;;;;5088247;28;20217;-66
2022/03/03 08:15:43;;;;;;;35.25;18.70;;;5.10;85.10;;;;;;5084096;28;20189;-67
2022/03/03 08:18:10;;;;;;;35.80;17.88;;;5.20;85.00;;;;;;5064816;28;20233;-67
2022/03/03 08:20:38;;;;;;;32.88;18.73;;;5.30;85.80;;;;;;5078523;28;20513;-69
2022/03/03 08:23:05;;;;;;;38.50;18.25;;;5.30;84.80;;;;;;5066818;28;20270;-66
2022/03/03 08:25:31;;;;;;;30.77;18.25;;;5.40;84.70;;;;;;5066141;28;20194;-67
2022/03/03 08:27:58;;;;;;;31.23;17.80;;;5.50;84.80;;;;;;5063895;28;20193;-67
2022/03/03 08:30:24;;;;;;;;;;;5.60;84.90;;;;;;5071616;28;20072;-66
2022/03/03 08:33:12;;;;;;;;;;;5.70;85.20;;;;;;5065633;28;19919;-68
2022/03/03 08:35:40;;;;;;;;;;;5.90;85.60;;;;;;5067237;28;20317;-66
2022/03/03 08:38:07;;;;;;;;;;;6.20;86.10;;;;;;5048642;28;19916;-66
2022/03/03 08:40:34;;;;;;;;;;;6.70;86.70;;;;;;5072953;28;19947;-68
2022/03/03 08:43:02;;;;;;;30.90;18.95;;;7.40;87.60;;;;;;5071793;28;20690;-66
2022/03/03 08:45:31;;;;;;;30.58;18.95;;;8.40;87.00;;;;;;5067401;28;20843;-67
2022/03/03 08:48:10;;;;;;;29.98;18.60;;;10.80;69.00;;;;;;5074155;28;20182;-67
2022/03/03 08:50:37;;;;;;;;;;;11.60;70.20;;;;;;5073878;28;20032;-67
2022/03/03 08:53:04;;;;;;;26.65;17.63;;;12.50;72.10;;;;;;5069043;28;20220;-68
2022/03/03 08:55:32;;;;;;;28.10;18.73;;;13.30;69.20;;;;;;5051683;28;20941;-67
2022/03/03 08:58:01;;;;;;;26.45;18.13;;;15.90;50.90;;;;;;5067168;28;20423;-67
2022/03/03 09:00:28;;;;;;;26.90;17.00;;;18.00;44.50;;;;;;5073942;28;20389;-67
2022/03/03 09:02:54;;;;;;;25.27;18.17;;;19.40;39.60;;;;;;5072181;28;20426;-66
2022/03/03 09:05:20;;;;;;;26.10;18.02;;;20.20;36.90;;;;;;5043399;28;20399;-67
2022/03/03 09:07:47;;;;;;;24.17;17.33;;;20.80;35.90;;;;;;5068856;28;20419;-67
2022/03/03 09:10:12;;;;;;;;;;;21.20;35.10;;;;;;5071152;28;20457;-66
2022/03/03 09:12:38;;;;;;;;;;;20.50;39.20;;;;;;5071407;28;19923;-67
2022/03/03 09:15:05;;;;;;;;;;;19.80;41.20;;;;;;5071807;28;19908;-66
2022/03/03 09:17:31;;;;;;;;;;;19.30;42.80;;;;;;5070653;28;20352;-66
2022/03/03 09:19:57;;;;;;;;;;;18.80;43.70;;;;;;5071986;28;20414;-67
2022/03/03 09:22:23;;;;;;;23.20;15.10;;;18.50;45.80;;;;;;5073654;28;20185;-66
2022/03/03 09:24:49;;;;;;;23.38;16.02;;;18.40;46.30;;;;;;5053460;28;20544;-68
2022/03/03 09:27:15;;;;;;;22.92;15.93;;;18.20;45.50;;;;;;5052486;28;20187;-68
2022/03/03 09:29:40;;;;;;;25.95;16.98;;;18.00;44.80;;;;;;5073779;28;20263;-67
2022/03/03 09:32:06;;;;;;;23.67;16.15;;;17.80;43.90;;;;;;5082737;28;20216;-68
2022/03/03 09:34:33;;;;;;;25.52;16.20;;;17.70;44.70;;;;;;5059578;28;20205;-66
2022/03/03 09:36:59;;;;;;;25.77;15.13;;;17.60;44.20;;;;;;5075308;28;20550;-67
2022/03/03 09:39:25;;;;;;;24.17;15.43;;;17.50;43.60;;;;;;5070395;28;20221;-67
2022/03/03 09:41:52;;;;;;;22.45;15.05;;;17.40;44.20;;;;;;5070806;28;20239;-68
2022/03/03 09:44:25;;;;;;;24.38;15.80;;;17.30;44.40;;;;;;5050039;28;20205;-66
2022/03/03 09:46:52;;;;;;;23.80;16.00;;;17.30;44.30;;;;;;5069755;28;20190;-67
2022/03/03 09:49:19;;;;;;;25.20;17.02;;;17.20;43.60;;;;;;5069673;28;21068;-67
2022/03/03 09:51:47;;;;;;;25.13;16.17;;;17.00;43.70;;;;;;5075533;28;20410;-68
2022/03/03 09:54:13;;;;;;;22.23;16.38;;;17.60;40.00;;;;;;5066416;28;20443;-68
2022/03/03 09:56:39;;;;;;;24.00;16.08;;;18.00;39.00;;;;;;5066170;28;20443;-66
2022/03/03 09:59:07;;;;;;;21.80;15.55;;;18.30;38.30;;;;;;5071623;28;20442;-67
2022/03/03 10:01:33;;;;;;;20.33;15.35;;;18.50;37.40;;;;;;5068224;28;20399;-69
2022/03/03 10:04:16;;;;;;;23.75;16.17;;;18.50;38.10;;;;;;5051218;28;20403;-67
2022/03/03 10:06:42;;;;;;;21.13;16.00;;;18.70;37.70;;;;;;5067759;28;20423;-69
2022/03/03 10:09:09;;;;;;;21.73;16.13;;;18.80;36.80;;;;;;5069233;28;20414;-68
2022/03/03 10:12:02;;;;;;;22.70;15.95;;;19.00;37.40;;;;;;5069238;28;20419;-69
2022/03/03 10:14:33;;;;;;;23.70;15.75;;;18.80;37.10;;;;;;5086012;28;20663;-68
2022/03/03 10:16:59;;;;;;;23.42;15.25;;;18.30;38.80;;;;;;5070424;28;20191;-68
2022/03/03 10:19:28;;;;;;;23.20;16.00;;;18.00;40.60;;;;;;5068852;28;20179;-69
2022/03/03 10:21:54;;;;;;;23.52;16.27;;;17.90;41.20;;;;;;5072116;28;20190;-68
2022/03/03 10:24:25;;;;;;;20.52;14.77;;;17.80;42.00;;;;;;5085654;28;20178;-68
2022/03/03 10:27:06;;;;;;;21.40;14.35;;;17.60;42.50;;;;;;5041011;28;20320;-69
2022/03/03 10:29:34;;;;;;;22.33;15.80;;;17.50;43.00;;;;;;5050703;28;20194;-68
2022/03/03 10:32:02;;;;;;;24.73;15.68;;;17.40;42.90;;;;;;5069434;28;20207;-68
2022/03/03 10:34:34;;;;;;;25.67;15.57;;;17.30;43.20;;;;;;5073944;28;20182;-66
2022/03/03 10:37:06;;;;;;;26.02;16.52;;;17.10;43.60;;;;;;5052525;28;20197;-67
2022/03/03 10:39:54;;;;;;;24.13;15.90;;;17.00;43.50;;;;;;5054124;28;20595;-69
2022/03/03 10:42:24;;;;;;;24.92;16.20;;;16.90;43.60;;;;;;5049955;28;20538;-68
2022/03/03 10:45:05;;;;;;;24.17;16.70;;;16.70;44.00;;;;;;5068271;28;20420;-68
2022/03/03 10:47:31;;;;;;;20.90;15.77;;;17.20;42.30;;;;;;5068490;28;20961;-68
2022/03/03 10:49:59;;;;;;;25.63;15.75;;;17.40;40.30;;;;;;5054134;28;20406;-68
2022/03/03 10:52:30;;;;;;;21.15;16.10;;;17.40;40.50;;;;;;5067580;28;20427;-67
2022/03/03 10:55:03;;;;;;;21.02;15.25;;;17.30;40.00;;;;;;5067989;28;20753;-67
2022/03/03 10:57:54;;;;;;;21.42;15.00;;;17.30;41.60;;;;;;5067163;28;20403;-66
2022/03/03 11:00:26;;;;;;;23.30;14.98;;;17.20;40.90;;;;;;5055639;28;20473;-68
2022/03/03 11:03:01;;;;;;;19.60;14.83;;;17.10;41.50;;;;;;5068362;28;20763;-68
2022/03/03 11:05:29;;;;;;;19.98;14.93;;;17.00;40.30;;;;;;5066311;28;20903;-68
2022/03/03 11:07:56;;;;;;;21.70;15.30;;;16.90;40.30;;;;;;5072041;28;20215;-69
2022/03/03 11:10:27;;;;;;;18.88;13.93;;;16.50;41.50;;;;;;5048975;28;20411;-68
2022/03/03 11:12:53;;;;;;;20.35;14.10;;;16.60;41.80;;;;;;5068097;28;20402;-65
2022/03/03 11:15:21;;;;;;;18.40;13.63;;;16.80;42.20;;;;;;5049876;28;20914;-67
2022/03/03 11:17:50;;;;;;;18.58;13.05;;;16.80;40.70;;;;;;5083629;28;20493;-67
2022/03/03 11:20:17;;;;;;;20.45;13.98;;;16.80;42.10;;;;;;5083007;28;20943;-67
2022/03/03 11:22:44;;;;;;;22.45;13.82;;;16.80;39.80;;;;;;5054990;28;20416;-68
2022/03/03 11:25:17;;;;;;;19.30;13.80;;;16.80;40.80;;;;;;5068696;28;20931;-67
2022/03/03 11:27:44;;;;;;;17.33;12.95;;;16.90;41.10;;;;;;5072374;28;20429;-67
2022/03/03 11:30:18;;;;;;;18.45;12.20;;;17.00;43.50;;;;;;5056279;28;20478;-68
2022/03/03 11:32:45;;;;;;;17.95;12.63;;;17.00;44.10;;;;;;5057363;28;20504;-66
2022/03/03 11:35:15;;;;;;;19.58;12.95;;;17.10;43.00;;;;;;5049045;28;20434;-67
2022/03/03 11:37:43;;;;;;;17.42;12.05;;;17.00;40.60;;;;;;5067025;28;20473;-67
2022/03/03 11:40:19;;;;;;;20.55;12.60;;;17.00;42.10;;;;;;5049170;28;20439;-67
2022/03/03 11:42:53;;;;;;;14.95;11.77;;;17.00;43.20;;;;;;5049921;28;20470;-67
2022/03/03 11:45:28;;;;;;;16.87;12.33;;;16.90;44.00;;;;;;5064983;28;20419;-67
2022/03/03 11:48:12;;;;;;;16.58;11.68;;;16.90;42.40;;;;;;5063090;28;20418;-67
2022/03/03 11:50:38;;;;;;;16.60;11.80;;;16.90;42.90;;;;;;5058862;28;20764;-68
2022/03/03 11:53:03;;;;;;;17.00;11.93;;;16.90;43.70;;;;;;5065575;28;20468;-68
2022/03/03 11:55:42;;;;;;;18.33;12.17;;;16.90;42.50;;;;;;5061825;28;20831;-68
2022/03/03 11:58:24;;;;;;;18.15;12.88;;;17.00;43.00;;;;;;5059381;28;20420;-66
2022/03/03 12:00:59;;;;;;;15.38;11.95;;;17.00;42.40;;;;;;5058771;28;20426;-68
2022/03/03 12:03:26;;;;;;;16.95;12.30;;;17.00;42.00;;;;;;5065023;28;20403;-68
2022/03/03 12:06:09;;;;;;;18.20;12.35;;;17.00;41.80;;;;;;5060374;28;20460;-68
2022/03/03 12:08:40;;;;;;;17.67;12.20;;;17.00;40.30;;;;;;5032121;28;20416;-67
2022/03/03 12:11:16;;;;;;;18.67;12.48;;;17.00;44.30;;;;;;5062757;28;20467;-68
2022/03/03 12:13:44;;;;;;;17.67;12.60;;;17.00;42.20;;;;;;5047944;28;20454;-67
2022/03/03 12:16:32;;;;;;;17.30;13.00;;;16.90;41.20;;;;;;5048206;28;20411;-68
2022/03/03 12:19:02;;;;;;;18.15;13.73;;;16.90;43.00;;;;;;5051342;28;20405;-70
2022/03/03 12:21:43;;;;;;;20.13;14.00;;;16.90;44.40;;;;;;5065669;28;20422;-67
2022/03/03 12:24:17;;;;;;;20.45;14.98;;;17.00;43.80;;;;;;5050644;28;20472;-69
2022/03/03 12:26:54;;;;;;;20.53;15.40;;;17.10;45.70;;;;;;5050692;28;20415;-69
2022/03/03 12:29:39;;;;;;;20.30;14.93;;;17.20;45.10;;;;;;5051419;28;20427;-68
2022/03/03 12:32:42;;;;;;;17.92;14.20;;;17.20;47.40;;;;;;5068922;28;20477;-69
2022/03/03 12:35:20;;;;;;;21.75;16.52;;;17.20;50.90;;;;;;5061292;28;20407;-68
2022/03/03 12:37:46;;;;;;;22.73;16.48;;;17.20;48.50;;;;;;5034497;28;20400;-69
2022/03/03 12:40:14;;;;;;;20.47;15.43;;;17.30;45.90;;;;;;5035428;28;20808;-68
2022/03/03 12:42:43;;;;;;;20.83;15.38;;;17.30;46.30;;;;;;5065398;28;20404;-66
2022/03/03 12:45:12;;;;;;;20.63;15.38;;;17.40;47.10;;;;;;5061731;28;20421;-68
2022/03/03 12:47:40;;;;;;;22.88;16.60;;;17.40;48.60;;;;;;5065844;28;20442;-67